Time,TemperatureF,DewpointF,PressureIn,WindDirection,WindDirectionDegrees,WindSpeedMPH,WindSpeedGustMPH,Humidity,HourlyPrecipIn,Conditions,Clouds,dailyrainin,SoftwareType,DateUTC
2013-03-26 00:12:00,34.1,25.0,29.75,NE,47,0.0,-999.0,70,-99.99,,,0.00,weatherlink.com 1.10,2013-03-26 04:12:00,
2013-03-26 00:27:00,34.1,26.0,29.75,NE,48,0.0,-999.0,71,-99.99,,,0.00,weatherlink.com 1.10,2013-03-26 04:27:00,
2013-03-26 00:45:00,34.0,26.0,29.75,NE,48,0.0,-999.0,71,-99.99,,,0.00,weatherlink.com 1.10,2013-03-26 04:45:00,
2013-03-26 00:57:00,34.0,26.0,29.76,NE,48,0.0,-999.0,72,-99.99,,,0.00,weatherlink.com 1.10,2013-03-26 04:57:00,
2013-03-26 01:12:00,34.0,26.0,29.76,NE,48,0.0,-999.0,73,-99.99,,,0.00,weatherlink.com 1.10,2013-03-26 05:12:00,
2013-03-26 01:28:00,33.7,26.0,29.76,NE,48,0.0,-999.0,74,-99.99,,,0.00,weatherlink.com 1.10,2013-03-26 05:28:00,
2013-03-26 01:42:00,33.4,26.0,29.76,NE,48,0.0,-999.0,75,-99.99,,,0.00,weatherlink.com 1.10,2013-03-26 05:42:00,
2013-03-26 01:57:00,33.1,26.0,29.76,NE,48,0.0,-999.0,76,-99.99,,,0.00,weatherlink.com 1.10,2013-03-26 05:57:00,
2013-03-26 02:12:00,32.7,26.0,29.77,NE,48,0.0,-999.0,77,-99.99,,,0.00,weatherlink.com 1.10,2013-03-26 06:12:00,
2013-03-26 02:27:00,32.2,26.0,29.77,NE,47,0.0,-999.0,78,-99.99,,,0.00,weatherlink.com 1.10,2013-03-26 06:27:00,
2013-03-26 02:42:00,32.2,26.0,29.77,NE,48,0.0,-999.0,79,-99.99,,,0.00,weatherlink.com 1.10,2013-03-26 06:42:00,
2013-03-26 02:57:00,32.5,27.0,29.77,NE,48,0.0,-999.0,79,-99.99,,,0.00,weatherlink.com 1.10,2013-03-26 06:57:00,
2013-03-26 03:12:00,32.9,27.0,29.77,NE,48,0.0,-999.0,78,-99.99,,,0.00,weatherlink.com 1.10,2013-03-26 07:12:00,
2013-03-26 03:27:00,33.4,27.0,29.77,NE,48,0.0,-999.0,77,-99.99,,,0.00,weatherlink.com 1.10,2013-03-26 07:27:00,
2013-03-26 03:42:00,33.7,27.0,29.77,NE,46,0.0,-999.0,76,-99.99,,,0.00,weatherlink.com 1.10,2013-03-26 07:42:00,
2013-03-26 03:57:00,33.7,27.0,29.77,NE,45,0.0,-999.0,75,-99.99,,,0.00,weatherlink.com 1.10,2013-03-26 07:57:00,
2013-03-26 04:12:00,33.5,26.0,29.77,NE,45,0.0,-999.0,75,-99.99,,,0.00,weatherlink.com 1.10,2013-03-26 08:12:00,
2013-03-26 04:27:00,33.4,26.0,29.77,NE,45,0.0,-999.0,75,-99.99,,,0.00,weatherlink.com 1.10,2013-03-26 08:27:00,
2013-03-26 04:42:00,33.4,26.0,29.77,NE,45,0.0,-999.0,75,-99.99,,,0.00,weatherlink.com 1.10,2013-03-26 08:42:00,
2013-03-26 04:57:00,32.8,26.0,29.78,NE,45,0.0,-999.0,77,-99.99,,,0.00,weatherlink.com 1.10,2013-03-26 08:57:00,
2013-03-26 05:12:00,32.7,27.0,29.78,NE,45,0.0,-999.0,78,-99.99,,,0.00,weatherlink.com 1.10,2013-03-26 09:12:00,
2013-03-26 05:27:00,32.7,27.0,29.78,NE,45,0.0,-999.0,78,-99.99,,,0.00,weatherlink.com 1.10,2013-03-26 09:27:00,
2013-03-26 05:42:00,32.8,27.0,29.78,NE,45,0.0,-999.0,78,-99.99,,,0.00,weatherlink.com 1.10,2013-03-26 09:42:00,
2013-03-26 05:57:00,32.9,27.0,29.78,NE,45,0.0,-999.0,78,-99.99,,,0.00,weatherlink.com 1.10,2013-03-26 09:57:00,
2013-03-26 06:12:00,33.1,27.0,29.79,NE,45,0.0,-999.0,78,-99.99,,,0.00,weatherlink.com 1.10,2013-03-26 10:12:00,
2013-03-26 06:27:00,33.1,27.0,29.79,NE,45,0.0,-999.0,79,-99.99,,,0.00,weatherlink.com 1.10,2013-03-26 10:27:00,
2013-03-26 06:42:00,33.1,28.0,29.80,NE,45,0.0,-999.0,80,-99.99,,,0.00,weatherlink.com 1.10,2013-03-26 10:42:00,
2013-03-26 06:57:00,33.1,28.0,29.80,NE,45,0.0,-999.0,80,-99.99,,,0.00,weatherlink.com 1.10,2013-03-26 10:57:00,
2013-03-26 07:12:00,33.2,28.0,29.81,SSW,209,0.0,-999.0,81,-99.99,,,0.00,weatherlink.com 1.10,2013-03-26 11:12:00,
2013-03-26 07:27:00,33.5,28.0,29.81,SW,223,0.0,-999.0,81,-99.99,,,0.00,weatherlink.com 1.10,2013-03-26 11:27:00,
2013-03-26 07:42:00,33.8,28.0,29.82,SW,223,0.0,-999.0,80,-99.99,,,0.00,weatherlink.com 1.10,2013-03-26 11:42:00,
2013-03-26 07:57:00,34.0,28.0,29.82,SW,236,1.0,-999.0,80,-99.99,,,0.00,weatherlink.com 1.10,2013-03-26 11:57:00,
2013-03-26 08:12:00,34.4,29.0,29.83,SW,236,0.0,-999.0,80,-99.99,,,0.00,weatherlink.com 1.10,2013-03-26 12:12:00,
2013-03-26 08:27:00,35.0,29.0,29.83,SW,236,0.0,-999.0,79,-99.99,,,0.00,weatherlink.com 1.10,2013-03-26 12:27:00,
2013-03-26 08:42:00,35.2,29.0,29.83,WSW,239,0.0,-999.0,78,-99.99,,,0.00,weatherlink.com 1.10,2013-03-26 12:42:00,
2013-03-26 08:57:00,35.6,29.0,29.83,WSW,239,0.0,-999.0,77,-99.99,,,0.00,weatherlink.com 1.10,2013-03-26 12:57:00,
2013-03-26 09:12:00,36.2,29.0,29.84,SW,218,0.0,-999.0,76,-99.99,,,0.00,weatherlink.com 1.10,2013-03-26 13:12:00,
2013-03-26 09:28:00,36.8,29.0,29.84,WSW,247,0.0,-999.0,74,-99.99,,,0.00,weatherlink.com 1.10,2013-03-26 13:28:00,
2013-03-26 09:43:00,37.2,29.0,29.85,SW,235,0.0,-999.0,72,-99.99,,,0.00,weatherlink.com 1.10,2013-03-26 13:43:00,
2013-03-26 09:58:00,37.3,29.0,29.85,WSW,250,0.0,-999.0,72,-99.99,,,0.00,weatherlink.com 1.10,2013-03-26 13:58:00,
2013-03-26 10:13:00,37.8,29.0,29.85,WSW,255,0.0,-999.0,71,-99.99,,,0.00,weatherlink.com 1.10,2013-03-26 14:13:00,
2013-03-26 10:28:00,38.3,29.0,29.86,WSW,244,0.0,-999.0,69,-99.99,,,0.00,weatherlink.com 1.10,2013-03-26 14:28:00,
2013-03-26 10:43:00,38.9,29.0,29.86,WSW,252,1.0,-999.0,67,-99.99,,,0.00,weatherlink.com 1.10,2013-03-26 14:43:00,
2013-03-26 10:58:00,39.6,28.0,29.86,SW,234,0.0,-999.0,64,-99.99,,,0.00,weatherlink.com 1.10,2013-03-26 14:58:00,
2013-03-26 11:13:00,40.5,28.0,29.86,NNE,14,0.0,-999.0,61,-99.99,,,0.00,weatherlink.com 1.10,2013-03-26 15:13:00,
2013-03-26 11:28:00,41.5,28.0,29.87,North,355,1.0,-999.0,60,-99.99,,,0.00,weatherlink.com 1.10,2013-03-26 15:28:00,
2013-03-26 11:43:00,42.2,29.0,29.87,West,261,3.0,-999.0,59,-99.99,,,0.00,weatherlink.com 1.10,2013-03-26 15:43:00,
2013-03-26 11:58:00,42.3,27.0,29.87,North,9,2.0,-999.0,55,-99.99,,,0.00,weatherlink.com 1.10,2013-03-26 15:58:00,
2013-03-26 12:13:00,43.3,27.0,29.87,NNE,31,4.0,-999.0,54,-99.99,,,0.00,weatherlink.com 1.10,2013-03-26 16:13:00,
2013-03-26 12:28:00,43.8,28.0,29.87,WSW,254,3.0,-999.0,54,-99.99,,,0.00,weatherlink.com 1.10,2013-03-26 16:28:00,
2013-03-26 12:43:00,44.2,25.0,29.87,SW,215,3.0,-999.0,48,-99.99,,,0.00,weatherlink.com 1.10,2013-03-26 16:43:00,
2013-03-26 12:58:00,44.9,27.0,29.87,WSW,254,1.0,-999.0,49,-99.99,,,0.00,weatherlink.com 1.10,2013-03-26 16:58:00,
2013-03-26 13:13:00,44.1,31.0,29.87,SW,232,1.0,-999.0,60,-99.99,,,0.00,weatherlink.com 1.10,2013-03-26 17:13:00,
2013-03-26 13:28:00,44.1,31.0,29.87,SW,221,7.0,-999.0,60,-99.99,,,0.00,weatherlink.com 1.10,2013-03-26 17:28:00,
2013-03-26 13:43:00,43.3,30.0,29.88,WSW,256,4.0,-999.0,61,-99.99,,,0.00,weatherlink.com 1.10,2013-03-26 17:43:00,
2013-03-26 13:58:00,43.2,30.0,29.88,West,277,7.0,-999.0,61,-99.99,,,0.00,weatherlink.com 1.10,2013-03-26 17:58:00,
2013-03-26 14:13:00,43.1,30.0,29.88,SW,219,1.0,-999.0,61,-99.99,,,0.00,weatherlink.com 1.10,2013-03-26 18:13:00,
2013-03-26 14:28:00,42.8,30.0,29.87,SW,219,2.0,-999.0,62,-99.99,,,0.00,weatherlink.com 1.10,2013-03-26 18:28:00,
2013-03-26 14:43:00,41.5,30.0,29.88,West,259,2.0,-999.0,63,-99.99,,,0.00,weatherlink.com 1.10,2013-03-26 18:43:00,
2013-03-26 14:58:00,40.6,30.0,29.88,WSW,242,4.0,-999.0,65,-99.99,,,0.00,weatherlink.com 1.10,2013-03-26 18:58:00,
2013-03-26 15:13:00,41.6,31.0,29.88,West,263,1.0,-999.0,66,-99.99,,,0.00,weatherlink.com 1.10,2013-03-26 19:13:00,
2013-03-26 15:28:00,43.6,32.0,29.88,South,186,5.0,-999.0,63,-99.99,,,0.00,weatherlink.com 1.10,2013-03-26 19:28:00,
2013-03-26 15:43:00,43.5,31.0,29.87,SW,236,3.0,-999.0,61,-99.99,,,0.00,weatherlink.com 1.10,2013-03-26 19:43:00,
2013-03-26 15:58:00,42.5,31.0,29.87,SW,221,5.0,-999.0,63,-99.99,,,0.00,weatherlink.com 1.10,2013-03-26 19:58:00,
2013-03-26 16:13:00,41.9,31.0,29.88,West,278,3.0,-999.0,65,-99.99,,,0.00,weatherlink.com 1.10,2013-03-26 20:13:00,
2013-03-26 16:28:00,41.8,31.0,29.89,SW,217,4.0,-999.0,66,-99.99,,,0.00,weatherlink.com 1.10,2013-03-26 20:28:00,
2013-03-26 16:43:00,42.9,31.0,29.88,WSW,238,5.0,-999.0,64,-99.99,,,0.00,weatherlink.com 1.10,2013-03-26 20:43:00,
2013-03-26 16:58:00,43.1,32.0,29.88,SSW,196,2.0,-999.0,64,-99.99,,,0.00,weatherlink.com 1.10,2013-03-26 20:58:00,
2013-03-26 17:13:00,43.6,32.0,29.89,SSW,205,2.0,-999.0,63,-99.99,,,0.00,weatherlink.com 1.10,2013-03-26 21:13:00,
2013-03-26 17:28:00,41.9,31.0,29.89,West,265,4.0,-999.0,66,-99.99,,,0.00,weatherlink.com 1.10,2013-03-26 21:28:00,
2013-03-26 17:43:00,40.8,31.0,29.89,WSW,257,0.0,-999.0,68,-99.99,,,0.00,weatherlink.com 1.10,2013-03-26 21:43:00,
2013-03-26 17:58:00,40.3,30.0,29.90,WSW,250,4.0,-999.0,68,-99.99,,,0.00,weatherlink.com 1.10,2013-03-26 21:58:00,
2013-03-26 18:13:00,39.6,30.0,29.90,WSW,248,2.0,-999.0,69,-99.99,,,0.00,weatherlink.com 1.10,2013-03-26 22:13:00,
2013-03-26 18:28:00,39.3,30.0,29.90,SW,236,3.0,-999.0,69,-99.99,,,0.00,weatherlink.com 1.10,2013-03-26 22:28:00,
2013-03-26 18:43:00,38.8,30.0,29.90,SW,221,4.0,-999.0,70,-99.99,,,0.00,weatherlink.com 1.10,2013-03-26 22:43:00,
2013-03-26 18:58:00,38.6,30.0,29.91,SSW,207,3.0,-999.0,70,-99.99,,,0.00,weatherlink.com 1.10,2013-03-26 22:58:00,
2013-03-26 19:13:00,38.6,30.0,29.91,SW,229,1.0,-999.0,70,-99.99,,,0.00,weatherlink.com 1.10,2013-03-26 23:13:00,
2013-03-26 19:28:00,38.6,30.0,29.91,SSW,211,0.0,-999.0,70,-99.99,,,0.00,weatherlink.com 1.10,2013-03-26 23:28:00,
2013-03-26 19:43:00,38.8,30.0,29.92,SW,229,1.0,-999.0,70,-99.99,,,0.00,weatherlink.com 1.10,2013-03-26 23:43:00,
2013-03-26 19:58:00,38.8,29.0,29.92,SW,226,3.0,-999.0,68,-99.99,,,0.00,weatherlink.com 1.10,2013-03-26 23:58:00,
2013-03-26 20:13:00,38.3,29.0,29.93,SSW,213,4.0,-999.0,70,-99.99,,,0.00,weatherlink.com 1.10,2013-03-27 00:13:00,
2013-03-26 20:28:00,38.0,30.0,29.94,WSW,240,1.0,-999.0,72,-99.99,,,0.00,weatherlink.com 1.10,2013-03-27 00:28:00,
2013-03-26 20:43:00,37.3,30.0,29.95,WNW,289,0.0,-999.0,74,-99.99,,,0.00,weatherlink.com 1.10,2013-03-27 00:43:00,
2013-03-26 20:58:00,36.3,30.0,29.95,NNW,334,0.0,-999.0,78,-99.99,,,0.00,weatherlink.com 1.10,2013-03-27 00:58:00,
2013-03-26 21:13:00,35.9,31.0,29.96,WSW,237,4.0,-999.0,81,-99.99,,,0.00,weatherlink.com 1.10,2013-03-27 01:13:00,
2013-03-26 21:28:00,35.6,31.0,29.96,SW,236,0.0,-999.0,82,-99.99,,,0.00,weatherlink.com 1.10,2013-03-27 01:28:00,
2013-03-26 21:43:00,35.6,31.0,29.96,SW,226,1.0,-999.0,83,-99.99,,,0.00,weatherlink.com 1.10,2013-03-27 01:43:00,
2013-03-26 22:00:00,35.6,31.0,29.96,SW,231,0.0,-999.0,83,-99.99,,,0.00,weatherlink.com 1.10,2013-03-27 02:00:00,
2013-03-26 22:12:00,35.2,31.0,29.96,SW,233,0.0,-999.0,83,-99.99,,,0.00,weatherlink.com 1.10,2013-03-27 02:12:00,
2013-03-26 22:27:00,35.0,31.0,29.96,SW,233,0.0,-999.0,84,-99.99,,,0.00,weatherlink.com 1.10,2013-03-27 02:27:00,
2013-03-26 22:42:00,34.9,31.0,29.96,SW,234,0.0,-999.0,84,-99.99,,,0.00,weatherlink.com 1.10,2013-03-27 02:42:00,
2013-03-26 22:57:00,34.6,30.0,29.96,SW,234,0.0,-999.0,84,-99.99,,,0.00,weatherlink.com 1.10,2013-03-27 02:57:00,
2013-03-26 23:12:00,34.3,30.0,29.96,SW,234,0.0,-999.0,84,-99.99,,,0.00,weatherlink.com 1.10,2013-03-27 03:12:00,
2013-03-26 23:27:00,33.8,30.0,29.96,SW,234,0.0,-999.0,84,-99.99,,,0.00,weatherlink.com 1.10,2013-03-27 03:27:00,
2013-03-26 23:42:00,33.5,29.0,29.96,SW,234,0.0,-999.0,84,-99.99,,,0.00,weatherlink.com 1.10,2013-03-27 03:42:00,
2013-03-26 23:57:00,33.4,29.0,29.97,SW,230,0.0,-999.0,84,-99.99,,,0.00,weatherlink.com 1.10,2013-03-27 03:57:00,